Check time and date!

LGTT 050330Z AUTO 05004KT //// // ////// 03/02 Q1019 RE//
TAF LGTT 050100Z 0503/0512 VRB05KT 9999 FEW020 BECMG 0506/0508 25010KT
--------------------------------------
--------------------------------------
LGTG 050320Z 00000KT CAVOK 05/04 Q1018
--------------------------------------
LGEL 050250Z 00000KT CAVOK 06/03 Q1018
--------------------------------------
LGAV 050320Z 00000KT CAVOK 07/05 Q1019 RMK NOSIG
--------------------------------------
LGAT 050330Z AUTO VRB02KT //// // ////// 11/03 Q1019 RE//
--------------------------------------
METAR LGAD 050320Z VRB03KT 9999 SCT018 06/03 Q1021
METAR LGAV 050320Z 00000KT CAVOK 07/05 Q1019 NOSIG
METAR LGBL 050250Z 25006KT CAVOK 04/M02 Q1018
METAR LGEL 050250Z 00000KT CAVOK 06/03 Q1018
METAR LGHI 050250Z 00000KT CAVOK 02/00 Q1018
METAR LGIO 050320Z AUTO VRB01KT //// // ////// M01/M02 Q1021 RE//
METAR LGIR 050320Z 17008KT CAVOK 06/01 Q1020 NOSIG
METAR LGKL 050320Z AUTO VRB03KT //// // ////// 03/01 Q1020 RE//
METAR LGKO 050320Z 32007KT CAVOK 09/03 Q1019
METAR LGKP 050330Z AUTO 29009KT //// // ////// 12/09 Q1020 RE//
METAR LGKR 050320Z 00000KT 9999 FEW030 07/07 Q1021 NOSIG
METAR LGKV 050320Z 05003KT CAVOK 03/02 Q1017
METAR LGKZ 050320Z AUTO 35004KT //// // ////// 03/M07 Q1018 RE//
METAR LGLM 050250Z 00000KT CAVOK 05/04 Q1017
METAR LGLR 050250Z 00000KT CAVOK 01/M00 Q1018 BLU
METAR LGMT 050250Z 26004KT 9999 SCT025 08/06 Q1020
METAR LGPA 050320Z AUTO 11008KT //// // ////// 09/05 Q1019 RE//
METAR LGPZ 050320Z VRB03KT 9999 FEW018 08/08 Q1021
METAR LGRP 050320Z 21006KT CAVOK 13/06 Q1019 NOSIG
METAR LGRX 050320Z 00000KT CAVOK 03/03 Q1021
METAR LGSA 050320Z 27004KT 9999 FEW020 09/05 Q1019
METAR LGSM 050250Z 00000KT CAVOK 09/06 Q1020
METAR LGSO 050320Z AUTO 23004KT //// -RA ////// 12/08 Q1019 RE//
METAR LGSY 050250Z 13004KT CAVOK 08/06 Q1017 BLU
METAR LGTG 050250Z 00000KT CAVOK 04/04 Q1018 BLU
METAR LGTS 050320Z VRB02KT CAVOK 05/02 Q1017 NOSIG

--------------------------------------
TAF LGAD 050200Z 0503/0512 22006KT 9999 SCT020 PROB30 TEMPO 0503/0507 3000 BR SCT015
TAF LGAL 050200Z 0503/0512 25010KT 9999 SCT015 PROB30 0503/0508 5000 BR SCT008
TAF LGAV 042300Z 0500/0524 23012KT 9999 FEW020 BECMG 0518/0520 SCT020 BKN060
TAF LGBL 050200Z 0503/0512 28008KT 9999 FEW020
TAF LGEL 042300Z 0500/0524 27010KT 9999 FEW020 TEMPO 0500/0506 VRB05KT BECMG 0515/0517 SCT020 BKN060
TAF LGHI 050200Z 0503/0512 VRB05KT 9999 FEW020 BECMG 0506/0508 19012KT
TAF LGIO 050200Z 0503/0512 VRB03KT 9999 FEW010 PROB40 0503/0508 3000 BR SCT008 PROB30 0504/0508 0400 FG BKN002
TAF LGIR 042300Z 0500/0524 VRB05KT 9999 FEW025 BECMG 0520/0522 18010KT
TAF LGKC 050200Z 0503/0512 27016KT 9999 FEW018
TAF LGKF 050200Z 0503/0512 VRB05KT 9999 SCT018 PROB30 0503/0508 5000 BR SCT008
TAF LGKL 050200Z 0503/0512 34006KT 9999 SCT025 PROB30 TEMPO 0503/0507 5000 BR SCT015
TAF LGKO 042300Z 0500/0524 34012KT 9999 FEW020 BECMG 0506/0508 24010KT
TAF LGKP 050200Z 0503/0512 34018KT 9999 FEW018 BECMG 0504/0506 22014KT
TAF LGKR 042300Z 0500/0524 VRB05KT 9999 SCT020 TEMPO 0503/0524 15010KT BECMG 0504/0506 SCT020 BKN030
TAF LGKV 042300Z 0500/0524 VRB03KT 9999 FEW025 TEMPO 0501/0508 4000 BR SCT008 PROB40 0503/0507 0500 FG BKN001 BECMG 0512/0514 24010KT BECMG 0518/0520 VRB03KT FEW025 BKN080
TAF LGLM 050200Z 0503/0512 20012KT 9999 FEW020
TAF LGLR 050200Z 0503/0512 VRB03KT 9999 FEW020 BECMG 0510/0512 26008KT
TAF LGMK 050200Z 0503/0512 23012KT 9999 FEW015
TAF LGMT 050200Z 0503/0512 VRB05KT 9999 FEW020 BECMG 0503/0505 15012KT
TAF LGPZ 042300Z 0500/0524 06010KT 9999 SCT020 PROB30 0500/0506 4000 BR SCT008 BECMG 0510/0512 26010KT
TAF LGRP 042300Z 0500/0524 25015KT 9999 FEW020 BECMG 0515/0517 VRB05KT
TAF LGRX 050200Z 0503/0512 24006KT 9999 SCT020 PROB30 TEMPO 0503/0507 3000 BR SCT015
TAF LGSA 042300Z 0500/0524 VRB05KT 9999 FEW025 TEMPO 0509/0515 31012KT
TAF LGSK 050200Z 0503/0512 24012KT 9999 FEW018
TAF LGSM 050200Z 0503/0512 VRB05KT 9999 FEW025 BECMG 0506/0508 18012KT
TAF LGSR 042300Z 0500/0524 24012KT 9999 FEW020
TAF LGST 050200Z 0503/0512 VRB05KT 9999 FEW025
TAF LGSY 050200Z 0503/0512 20012KT 9999 FEW020
TAF LGTG 050200Z 0503/0512 23010KT 9999 FEW025
TAF LGTL 050200Z 0503/0512 19008KT 9999 FEW025
TAF LGTS 042300Z 0500/0524 VRB03KT 9999 FEW030 PROB40 0504/0508 4000 BR SCT008
TAF LGZA 050200Z 0503/0512 VRB05KT 9999 SCT015 PROB30 0503/0508 5000 BR SCT008